sensor_id;sensor_type;location;lat;lon;timestamp;temperature;humidity
67054;SHT31;53960;51.826;5.850;2023-11-19T00:00:33;12.58;99.99
67054;SHT31;53960;51.826;5.850;2023-11-19T00:02:59;12.62;99.99
67054;SHT31;53960;51.826;5.850;2023-11-19T00:05:24;12.61;99.99
67054;SHT31;53960;51.826;5.850;2023-11-19T00:07:49;12.62;99.99
67054;SHT31;53960;51.826;5.850;2023-11-19T00:10:16;12.62;99.99
67054;SHT31;53960;51.826;5.850;2023-11-19T00:12:45;12.65;99.99
67054;SHT31;53960;51.826;5.850;2023-11-19T00:15:12;12.67;99.99
67054;SHT31;53960;51.826;5.850;2023-11-19T00:17:38;12.69;99.99
67054;SHT31;53960;51.826;5.850;2023-11-19T00:20:11;12.68;99.99
67054;SHT31;53960;51.826;5.850;2023-11-19T00:22:36;12.61;99.99
67054;SHT31;53960;51.826;5.850;2023-11-19T00:25:01;12.65;99.99
67054;SHT31;53960;51.826;5.850;2023-11-19T00:27:27;12.64;99.99
67054;SHT31;53960;51.826;5.850;2023-11-19T00:29:52;12.62;99.99
67054;SHT31;53960;51.826;5.850;2023-11-19T00:32:18;12.65;99.99
67054;SHT31;53960;51.826;5.850;2023-11-19T00:34:44;12.61;99.99
67054;SHT31;53960;51.826;5.850;2023-11-19T00:37:10;12.62;99.99
67054;SHT31;53960;51.826;5.850;2023-11-19T00:39:35;12.67;99.99
67054;SHT31;53960;51.826;5.850;2023-11-19T00:42:00;12.68;99.99
67054;SHT31;53960;51.826;5.850;2023-11-19T00:44:26;12.67;99.99
67054;SHT31;53960;51.826;5.850;2023-11-19T00:46:51;12.65;99.99
67054;SHT31;53960;51.826;5.850;2023-11-19T00:49:16;12.65;99.99
67054;SHT31;53960;51.826;5.850;2023-11-19T00:51:41;12.67;99.99
67054;SHT31;53960;51.826;5.850;2023-11-19T00:54:07;12.68;99.99
67054;SHT31;53960;51.826;5.850;2023-11-19T00:56:32;12.69;99.99
67054;SHT31;53960;51.826;5.850;2023-11-19T00:58:58;12.72;99.99
67054;SHT31;53960;51.826;5.850;2023-11-19T01:01:25;12.65;99.99
67054;SHT31;53960;51.826;5.850;2023-11-19T01:03:50;12.68;99.99
67054;SHT31;53960;51.826;5.850;2023-11-19T01:06:26;12.69;99.99
67054;SHT31;53960;51.826;5.850;2023-11-19T01:08:52;12.75;99.99
67054;SHT31;53960;51.826;5.850;2023-11-19T01:11:21;12.77;99.99
67054;SHT31;53960;51.826;5.850;2023-11-19T01:13:47;12.79;99.99
67054;SHT31;53960;51.826;5.850;2023-11-19T01:16:12;12.82;99.99
67054;SHT31;53960;51.826;5.850;2023-11-19T01:18:38;12.77;99.99
67054;SHT31;53960;51.826;5.850;2023-11-19T01:21:04;12.84;99.99
67054;SHT31;53960;51.826;5.850;2023-11-19T01:23:30;12.81;99.99
67054;SHT31;53960;51.826;5.850;2023-11-19T01:25:55;12.81;99.99
67054;SHT31;53960;51.826;5.850;2023-11-19T01:28:20;12.84;99.99
67054;SHT31;53960;51.826;5.850;2023-11-19T01:30:46;12.88;99.99
67054;SHT31;53960;51.826;5.850;2023-11-19T01:33:11;12.88;99.99
67054;SHT31;53960;51.826;5.850;2023-11-19T01:35:36;12.88;99.99
67054;SHT31;53960;51.826;5.850;2023-11-19T01:38:02;12.85;99.99
67054;SHT31;53960;51.826;5.850;2023-11-19T01:40:27;12.82;99.99
67054;SHT31;53960;51.826;5.850;2023-11-19T01:42:52;12.78;99.99
67054;SHT31;53960;51.826;5.850;2023-11-19T01:45:27;12.82;99.99
67054;SHT31;53960;51.826;5.850;2023-11-19T01:48:00;12.87;99.99
67054;SHT31;53960;51.826;5.850;2023-11-19T01:50:27;12.85;99.99
67054;SHT31;53960;51.826;5.850;2023-11-19T01:52:53;12.82;99.99
67054;SHT31;53960;51.826;5.850;2023-11-19T01:55:22;12.88;99.99
67054;SHT31;53960;51.826;5.850;2023-11-19T01:57:49;12.91;99.99
67054;SHT31;53960;51.826;5.850;2023-11-19T02:00:15;12.84;99.99
67054;SHT31;53960;51.826;5.850;2023-11-19T02:02:41;12.84;99.99
67054;SHT31;53960;51.826;5.850;2023-11-19T02:05:08;12.88;99.99
67054;SHT31;53960;51.826;5.850;2023-11-19T02:07:34;12.84;99.99
67054;SHT31;53960;51.826;5.850;2023-11-19T02:09:59;12.85;99.99
67054;SHT31;53960;51.826;5.850;2023-11-19T02:12:27;12.87;99.99
67054;SHT31;53960;51.826;5.850;2023-11-19T02:14:54;12.91;99.99
67054;SHT31;53960;51.826;5.850;2023-11-19T02:17:29;12.85;99.99
67054;SHT31;53960;51.826;5.850;2023-11-19T02:19:57;12.82;99.99
67054;SHT31;53960;51.826;5.850;2023-11-19T02:22:22;12.85;99.99
67054;SHT31;53960;51.826;5.850;2023-11-19T02:24:49;12.89;99.99
67054;SHT31;53960;51.826;5.850;2023-11-19T02:27:26;12.89;99.99
67054;SHT31;53960;51.826;5.850;2023-11-19T02:29:53;12.91;99.99
67054;SHT31;53960;51.826;5.850;2023-11-19T02:32:19;12.88;99.99
67054;SHT31;53960;51.826;5.850;2023-11-19T02:34:44;12.82;99.99
67054;SHT31;53960;51.826;5.850;2023-11-19T02:37:10;12.88;99.99
67054;SHT31;53960;51.826;5.850;2023-11-19T02:39:35;12.88;99.99
67054;SHT31;53960;51.826;5.850;2023-11-19T02:42:02;12.89;99.44
67054;SHT31;53960;51.826;5.850;2023-11-19T02:44:27;12.91;99.53
67054;SHT31;53960;51.826;5.850;2023-11-19T02:46:55;12.93;99.28
67054;SHT31;53960;51.826;5.850;2023-11-19T02:49:25;12.92;99.25
67054;SHT31;53960;51.826;5.850;2023-11-19T02:51:50;12.91;99.09
67054;SHT31;53960;51.826;5.850;2023-11-19T02:54:15;12.91;99.11
67054;SHT31;53960;51.826;5.850;2023-11-19T02:56:44;12.88;98.93
67054;SHT31;53960;51.826;5.850;2023-11-19T02:59:13;12.91;98.55
67054;SHT31;53960;51.826;5.850;2023-11-19T03:01:52;12.91;98.39
67054;SHT31;53960;51.826;5.850;2023-11-19T03:04:17;12.87;98.03
67054;SHT31;53960;51.826;5.850;2023-11-19T03:06:45;12.93;97.51
67054;SHT31;53960;51.826;5.850;2023-11-19T03:09:11;12.88;97.45
67054;SHT31;53960;51.826;5.850;2023-11-19T03:11:36;12.93;97.21
67054;SHT31;53960;51.826;5.850;2023-11-19T03:14:02;12.95;97.16
67054;SHT31;53960;51.826;5.850;2023-11-19T03:16:30;12.93;97.06
67054;SHT31;53960;51.826;5.850;2023-11-19T03:18:56;12.92;96.99
67054;SHT31;53960;51.826;5.850;2023-11-19T03:21:28;12.81;97.58
67054;SHT31;53960;51.826;5.850;2023-11-19T03:23:54;12.79;97.23
67054;SHT31;53960;51.826;5.850;2023-11-19T03:26:19;12.79;96.81
67054;SHT31;53960;51.826;5.850;2023-11-19T03:28:45;12.79;97.12
67054;SHT31;53960;51.826;5.850;2023-11-19T03:31:10;12.68;97.46
67054;SHT31;53960;51.826;5.850;2023-11-19T03:33:35;12.62;96.79
67054;SHT31;53960;51.826;5.850;2023-11-19T03:36:01;12.61;97.11
67054;SHT31;53960;51.826;5.850;2023-11-19T03:38:26;12.52;97.09
67054;SHT31;53960;51.826;5.850;2023-11-19T03:40:51;12.54;97.05
67054;SHT31;53960;51.826;5.850;2023-11-19T03:43:17;12.44;97.19
67054;SHT31;53960;51.826;5.850;2023-11-19T03:45:44;12.42;97.26
67054;SHT31;53960;51.826;5.850;2023-11-19T03:48:09;12.37;97.29
67054;SHT31;53960;51.826;5.850;2023-11-19T03:50:35;12.33;97.25
67054;SHT31;53960;51.826;5.850;2023-11-19T03:53:00;12.31;97.20
67054;SHT31;53960;51.826;5.850;2023-11-19T03:55:25;12.30;97.27
67054;SHT31;53960;51.826;5.850;2023-11-19T03:57:51;12.24;97.05
67054;SHT31;53960;51.826;5.850;2023-11-19T04:00:16;12.21;97.29
67054;SHT31;53960;51.826;5.850;2023-11-19T04:02:42;12.16;97.29
67054;SHT31;53960;51.826;5.850;2023-11-19T04:05:07;12.10;97.39
67054;SHT31;53960;51.826;5.850;2023-11-19T04:07:33;12.10;97.32
67054;SHT31;53960;51.826;5.850;2023-11-19T04:09:59;12.00;97.37
67054;SHT31;53960;51.826;5.850;2023-11-19T04:12:24;12.02;97.35
67054;SHT31;53960;51.826;5.850;2023-11-19T04:14:50;12.02;96.73
67054;SHT31;53960;51.826;5.850;2023-11-19T04:17:15;11.99;96.99
67054;SHT31;53960;51.826;5.850;2023-11-19T04:19:40;11.97;96.73
67054;SHT31;53960;51.826;5.850;2023-11-19T04:22:07;12.02;96.39
67054;SHT31;53960;51.826;5.850;2023-11-19T04:24:33;12.07;95.88
67054;SHT31;53960;51.826;5.850;2023-11-19T04:26:59;12.12;95.56
67054;SHT31;53960;51.826;5.850;2023-11-19T04:29:24;11.97;96.15
67054;SHT31;53960;51.826;5.850;2023-11-19T04:31:49;12.00;95.97
67054;SHT31;53960;51.826;5.850;2023-11-19T04:34:15;11.97;96.02
67054;SHT31;53960;51.826;5.850;2023-11-19T04:36:41;12.00;95.61
67054;SHT31;53960;51.826;5.850;2023-11-19T04:39:06;11.87;96.00
67054;SHT31;53960;51.826;5.850;2023-11-19T04:41:48;11.92;95.83
67054;SHT31;53960;51.826;5.850;2023-11-19T04:44:14;11.86;95.70
67054;SHT31;53960;51.826;5.850;2023-11-19T04:46:41;11.87;95.63
67054;SHT31;53960;51.826;5.850;2023-11-19T04:49:08;11.89;95.96
67054;SHT31;53960;51.826;5.850;2023-11-19T04:51:38;11.87;95.73
67054;SHT31;53960;51.826;5.850;2023-11-19T04:54:04;11.86;95.94
67054;SHT31;53960;51.826;5.850;2023-11-19T04:56:30;11.82;96.09
67054;SHT31;53960;51.826;5.850;2023-11-19T04:58:55;11.76;96.19
67054;SHT31;53960;51.826;5.850;2023-11-19T05:01:20;11.75;96.05
67054;SHT31;53960;51.826;5.850;2023-11-19T05:03:46;11.75;96.22
67054;SHT31;53960;51.826;5.850;2023-11-19T05:06:11;11.73;96.21
67054;SHT31;53960;51.826;5.850;2023-11-19T05:08:36;11.78;95.86
67054;SHT31;53960;51.826;5.850;2023-11-19T05:11:02;11.73;95.85
67054;SHT31;53960;51.826;5.850;2023-11-19T05:13:28;11.73;95.81
67054;SHT31;53960;51.826;5.850;2023-11-19T05:15:54;11.76;95.70
67054;SHT31;53960;51.826;5.850;2023-11-19T05:18:19;11.75;95.52
67054;SHT31;53960;51.826;5.850;2023-11-19T05:20:45;11.72;95.72
67054;SHT31;53960;51.826;5.850;2023-11-19T05:23:10;11.68;95.74
67054;SHT31;53960;51.826;5.850;2023-11-19T05:25:36;11.69;95.62
67054;SHT31;53960;51.826;5.850;2023-11-19T05:28:02;11.69;95.55
67054;SHT31;53960;51.826;5.850;2023-11-19T05:30:27;11.71;95.55
67054;SHT31;53960;51.826;5.850;2023-11-19T05:32:52;11.69;95.32
67054;SHT31;53960;51.826;5.850;2023-11-19T05:35:18;11.72;95.20
67054;SHT31;53960;51.826;5.850;2023-11-19T05:37:43;11.65;95.19
67054;SHT31;53960;51.826;5.850;2023-11-19T05:40:09;11.72;95.14
67054;SHT31;53960;51.826;5.850;2023-11-19T05:42:40;11.72;94.88
67054;SHT31;53960;51.826;5.850;2023-11-19T05:45:05;11.76;94.49
67054;SHT31;53960;51.826;5.850;2023-11-19T05:47:33;11.75;94.36
67054;SHT31;53960;51.826;5.850;2023-11-19T05:49:58;11.66;94.74
67054;SHT31;53960;51.826;5.850;2023-11-19T05:52:23;11.69;94.90
67054;SHT31;53960;51.826;5.850;2023-11-19T05:54:49;11.58;95.15
67054;SHT31;53960;51.826;5.850;2023-11-19T05:57:17;11.69;94.52
67054;SHT31;53960;51.826;5.850;2023-11-19T05:59:47;11.73;94.35
67054;SHT31;53960;51.826;5.850;2023-11-19T06:02:13;11.72;94.35
67054;SHT31;53960;51.826;5.850;2023-11-19T06:04:38;11.75;94.56
67054;SHT31;53960;51.826;5.850;2023-11-19T06:07:04;11.66;94.77
67054;SHT31;53960;51.826;5.850;2023-11-19T06:09:30;11.71;94.67
67054;SHT31;53960;51.826;5.850;2023-11-19T06:11:57;11.65;94.73
67054;SHT31;53960;51.826;5.850;2023-11-19T06:14:22;11.59;94.87
67054;SHT31;53960;51.826;5.850;2023-11-19T06:16:49;11.58;95.03
67054;SHT31;53960;51.826;5.850;2023-11-19T06:19:16;11.61;94.90
67054;SHT31;53960;51.826;5.850;2023-11-19T06:21:42;11.59;95.00
67054;SHT31;53960;51.826;5.850;2023-11-19T06:24:07;11.62;95.10
67054;SHT31;53960;51.826;5.850;2023-11-19T06:26:34;11.59;95.35
67054;SHT31;53960;51.826;5.850;2023-11-19T06:28:59;11.46;95.52
67054;SHT31;53960;51.826;5.850;2023-11-19T06:31:25;11.45;95.62
67054;SHT31;53960;51.826;5.850;2023-11-19T06:33:50;11.41;95.60
67054;SHT31;53960;51.826;5.850;2023-11-19T06:36:16;11.36;95.80
67054;SHT31;53960;51.826;5.850;2023-11-19T06:38:42;11.48;95.42
67054;SHT31;53960;51.826;5.850;2023-11-19T06:41:08;11.39;95.56
67054;SHT31;53960;51.826;5.850;2023-11-19T06:43:37;11.45;95.62
67054;SHT31;53960;51.826;5.850;2023-11-19T06:46:03;11.41;95.59
67054;SHT31;53960;51.826;5.850;2023-11-19T06:48:34;11.52;95.39
67054;SHT31;53960;51.826;5.850;2023-11-19T06:51:00;11.44;95.49
67054;SHT31;53960;51.826;5.850;2023-11-19T06:53:25;11.42;95.65
67054;SHT31;53960;51.826;5.850;2023-11-19T06:55:53;11.44;95.51
67054;SHT31;53960;51.826;5.850;2023-11-19T06:58:18;11.45;95.42
67054;SHT31;53960;51.826;5.850;2023-11-19T07:00:44;11.44;95.33
67054;SHT31;53960;51.826;5.850;2023-11-19T07:03:11;11.41;95.49
67054;SHT31;53960;51.826;5.850;2023-11-19T07:05:36;11.45;95.36
67054;SHT31;53960;51.826;5.850;2023-11-19T07:08:04;11.46;95.31
67054;SHT31;53960;51.826;5.850;2023-11-19T07:10:29;11.41;95.48
67054;SHT31;53960;51.826;5.850;2023-11-19T07:12:55;11.45;95.10
67054;SHT31;53960;51.826;5.850;2023-11-19T07:15:21;11.42;95.23
67054;SHT31;53960;51.826;5.850;2023-11-19T07:17:46;11.39;95.31
67054;SHT31;53960;51.826;5.850;2023-11-19T07:20:13;11.42;95.19
67054;SHT31;53960;51.826;5.850;2023-11-19T07:22:43;11.38;95.27
67054;SHT31;53960;51.826;5.850;2023-11-19T07:25:12;11.45;95.13
67054;SHT31;53960;51.826;5.850;2023-11-19T07:27:38;11.44;95.37
67054;SHT31;53960;51.826;5.850;2023-11-19T07:30:04;11.39;95.38
67054;SHT31;53960;51.826;5.850;2023-11-19T07:32:30;11.41;95.41
67054;SHT31;53960;51.826;5.850;2023-11-19T07:34:55;11.44;95.13
67054;SHT31;53960;51.826;5.850;2023-11-19T07:37:21;11.48;95.17
67054;SHT31;53960;51.826;5.850;2023-11-19T07:39:47;11.62;94.88
67054;SHT31;53960;51.826;5.850;2023-11-19T07:42:13;11.55;95.16
67054;SHT31;53960;51.826;5.850;2023-11-19T07:44:38;11.50;95.22
67054;SHT31;53960;51.826;5.850;2023-11-19T07:47:03;11.51;95.29
67054;SHT31;53960;51.826;5.850;2023-11-19T07:49:29;11.58;95.10
67054;SHT31;53960;51.826;5.850;2023-11-19T07:51:55;11.59;95.19
67054;SHT31;53960;51.826;5.850;2023-11-19T07:54:21;11.63;95.05
67054;SHT31;53960;51.826;5.850;2023-11-19T07:56:46;11.71;94.79
67054;SHT31;53960;51.826;5.850;2023-11-19T07:59:12;11.78;94.59
67054;SHT31;53960;51.826;5.850;2023-11-19T08:01:37;11.73;94.90
67054;SHT31;53960;51.826;5.850;2023-11-19T08:04:03;11.81;94.67
67054;SHT31;53960;51.826;5.850;2023-11-19T08:06:28;11.76;94.97
67054;SHT31;53960;51.826;5.850;2023-11-19T08:08:54;11.75;95.11
67054;SHT31;53960;51.826;5.850;2023-11-19T08:11:19;11.76;95.02
67054;SHT31;53960;51.826;5.850;2023-11-19T08:13:45;11.82;94.70
67054;SHT31;53960;51.826;5.850;2023-11-19T08:16:10;11.83;94.45
67054;SHT31;53960;51.826;5.850;2023-11-19T08:18:36;11.83;94.50
67054;SHT31;53960;51.826;5.850;2023-11-19T08:21:01;11.92;94.25
67054;SHT31;53960;51.826;5.850;2023-11-19T08:23:30;11.87;94.19
67054;SHT31;53960;51.826;5.850;2023-11-19T08:25:55;11.87;94.22
67054;SHT31;53960;51.826;5.850;2023-11-19T08:28:20;11.86;94.38
67054;SHT31;53960;51.826;5.850;2023-11-19T08:30:46;11.90;94.08
67054;SHT31;53960;51.826;5.850;2023-11-19T08:33:11;11.93;94.02
67054;SHT31;53960;51.826;5.850;2023-11-19T08:35:37;11.99;93.90
67054;SHT31;53960;51.826;5.850;2023-11-19T08:38:02;12.00;93.86
67054;SHT31;53960;51.826;5.850;2023-11-19T08:40:28;12.02;93.90
67054;SHT31;53960;51.826;5.850;2023-11-19T08:42:53;12.02;93.93
67054;SHT31;53960;51.826;5.850;2023-11-19T08:45:19;12.04;93.78
67054;SHT31;53960;51.826;5.850;2023-11-19T08:47:44;12.04;93.66
67054;SHT31;53960;51.826;5.850;2023-11-19T08:50:11;12.03;93.71
67054;SHT31;53960;51.826;5.850;2023-11-19T08:52:36;12.03;93.78
67054;SHT31;53960;51.826;5.850;2023-11-19T08:55:01;12.04;93.96
67054;SHT31;53960;51.826;5.850;2023-11-19T08:57:28;12.00;93.83
67054;SHT31;53960;51.826;5.850;2023-11-19T08:59:53;11.96;93.99
67054;SHT31;53960;51.826;5.850;2023-11-19T09:02:18;11.97;93.94
67054;SHT31;53960;51.826;5.850;2023-11-19T09:04:44;12.03;93.81
67054;SHT31;53960;51.826;5.850;2023-11-19T09:07:09;12.04;93.63
67054;SHT31;53960;51.826;5.850;2023-11-19T09:09:35;12.10;93.96
67054;SHT31;53960;51.826;5.850;2023-11-19T09:12:01;12.07;93.96
67054;SHT31;53960;51.826;5.850;2023-11-19T09:14:27;12.14;93.82
67054;SHT31;53960;51.826;5.850;2023-11-19T09:16:52;12.17;93.46
67054;SHT31;53960;51.826;5.850;2023-11-19T09:19:18;12.16;93.51
67054;SHT31;53960;51.826;5.850;2023-11-19T09:21:43;12.21;93.46
67054;SHT31;53960;51.826;5.850;2023-11-19T09:24:09;12.26;93.41
67054;SHT31;53960;51.826;5.850;2023-11-19T09:26:34;12.30;93.23
67054;SHT31;53960;51.826;5.850;2023-11-19T09:29:01;12.34;93.23
67054;SHT31;53960;51.826;5.850;2023-11-19T09:31:27;12.33;93.24
67054;SHT31;53960;51.826;5.850;2023-11-19T09:33:52;12.37;92.89
67054;SHT31;53960;51.826;5.850;2023-11-19T09:36:17;12.40;92.80
67054;SHT31;53960;51.826;5.850;2023-11-19T09:38:44;12.41;92.85
67054;SHT31;53960;51.826;5.850;2023-11-19T09:41:10;12.40;93.02
67054;SHT31;53960;51.826;5.850;2023-11-19T09:43:38;12.42;92.86
67054;SHT31;53960;51.826;5.850;2023-11-19T09:46:05;12.47;92.50
67054;SHT31;53960;51.826;5.850;2023-11-19T09:48:36;12.52;92.63
67054;SHT31;53960;51.826;5.850;2023-11-19T09:51:06;12.58;92.62
67054;SHT31;53960;51.826;5.850;2023-11-19T09:53:32;12.61;92.73
67054;SHT31;53960;51.826;5.850;2023-11-19T09:56:02;12.58;92.36
67054;SHT31;53960;51.826;5.850;2023-11-19T09:58:29;12.58;92.55
67054;SHT31;53960;51.826;5.850;2023-11-19T10:00:55;12.62;92.54
67054;SHT31;53960;51.826;5.850;2023-11-19T10:03:22;12.58;92.53
67054;SHT31;53960;51.826;5.850;2023-11-19T10:05:48;12.65;92.40
67054;SHT31;53960;51.826;5.850;2023-11-19T10:08:14;12.71;92.49
67054;SHT31;53960;51.826;5.850;2023-11-19T10:10:39;12.71;92.17
67054;SHT31;53960;51.826;5.850;2023-11-19T10:13:05;12.72;92.16
67054;SHT31;53960;51.826;5.850;2023-11-19T10:15:36;12.78;92.10
67054;SHT31;53960;51.826;5.850;2023-11-19T10:18:01;12.84;92.08
67054;SHT31;53960;51.826;5.850;2023-11-19T10:20:27;12.91;92.05
67054;SHT31;53960;51.826;5.850;2023-11-19T10:22:53;12.92;92.07
67054;SHT31;53960;51.826;5.850;2023-11-19T10:25:27;12.99;91.57
67054;SHT31;53960;51.826;5.850;2023-11-19T10:27:54;13.03;91.69
67054;SHT31;53960;51.826;5.850;2023-11-19T10:30:24;13.01;91.52
67054;SHT31;53960;51.826;5.850;2023-11-19T10:33:06;13.02;91.34
67054;SHT31;53960;51.826;5.850;2023-11-19T10:35:33;13.02;91.34
67054;SHT31;53960;51.826;5.850;2023-11-19T10:38:00;13.06;90.98
67054;SHT31;53960;51.826;5.850;2023-11-19T10:40:37;13.03;90.61
67054;SHT31;53960;51.826;5.850;2023-11-19T10:43:05;13.05;90.95
67054;SHT31;53960;51.826;5.850;2023-11-19T10:45:30;13.03;91.02
67054;SHT31;53960;51.826;5.850;2023-11-19T10:47:56;13.09;90.71
67054;SHT31;53960;51.826;5.850;2023-11-19T10:50:22;13.15;90.42
67054;SHT31;53960;51.826;5.850;2023-11-19T10:52:50;13.13;90.42
67054;SHT31;53960;51.826;5.850;2023-11-19T10:55:18;13.09;90.53
67054;SHT31;53960;51.826;5.850;2023-11-19T10:57:49;13.06;90.46
67054;SHT31;53960;51.826;5.850;2023-11-19T11:00:17;13.15;90.09
67054;SHT31;53960;51.826;5.850;2023-11-19T11:02:45;13.12;90.15
67054;SHT31;53960;51.826;5.850;2023-11-19T11:05:16;13.24;89.95
67054;SHT31;53960;51.826;5.850;2023-11-19T11:07:43;13.33;89.90
67054;SHT31;53960;51.826;5.850;2023-11-19T11:10:09;13.30;89.89
67054;SHT31;53960;51.826;5.850;2023-11-19T11:12:37;13.33;89.84
67054;SHT31;53960;51.826;5.850;2023-11-19T11:15:07;13.33;89.41
67054;SHT31;53960;51.826;5.850;2023-11-19T11:17:33;13.33;89.88
67054;SHT31;53960;51.826;5.850;2023-11-19T11:19:59;13.38;89.32
67054;SHT31;53960;51.826;5.850;2023-11-19T11:22:25;13.44;89.37
67054;SHT31;53960;51.826;5.850;2023-11-19T11:25:18;13.47;89.27
67054;SHT31;53960;51.826;5.850;2023-11-19T11:27:57;13.56;89.43
67054;SHT31;53960;51.826;5.850;2023-11-19T11:30:35;13.56;89.26
67054;SHT31;53960;51.826;5.850;2023-11-19T11:38:42;13.68;88.33
67054;SHT31;53960;51.826;5.850;2023-11-19T11:41:19;13.68;88.34
67054;SHT31;53960;51.826;5.850;2023-11-19T11:43:52;13.67;88.08
67054;SHT31;53960;51.826;5.850;2023-11-19T11:49:05;13.68;88.42
67054;SHT31;53960;51.826;5.850;2023-11-19T11:59:51;13.81;88.56
67054;SHT31;53960;51.826;5.850;2023-11-19T12:02:22;13.75;88.92
67054;SHT31;53960;51.826;5.850;2023-11-19T12:04:51;13.70;89.18
67054;SHT31;53960;51.826;5.850;2023-11-19T12:07:24;13.66;89.16
67054;SHT31;53960;51.826;5.850;2023-11-19T12:10:04;13.64;89.57
67054;SHT31;53960;51.826;5.850;2023-11-19T12:12:32;13.54;89.61
67054;SHT31;53960;51.826;5.850;2023-11-19T12:19:59;13.54;89.42
67054;SHT31;53960;51.826;5.850;2023-11-19T12:22:25;13.60;88.94
67054;SHT31;53960;51.826;5.850;2023-11-19T12:24:52;13.63;88.81
67054;SHT31;53960;51.826;5.850;2023-11-19T12:27:19;13.66;88.50
67054;SHT31;53960;51.826;5.850;2023-11-19T12:29:47;13.68;88.23
67054;SHT31;53960;51.826;5.850;2023-11-19T12:32:12;13.66;88.34
67054;SHT31;53960;51.826;5.850;2023-11-19T12:34:38;13.70;88.28
67054;SHT31;53960;51.826;5.850;2023-11-19T12:37:04;13.71;88.03
67054;SHT31;53960;51.826;5.850;2023-11-19T12:39:30;13.68;88.17
67054;SHT31;53960;51.826;5.850;2023-11-19T12:41:55;13.68;88.42
67054;SHT31;53960;51.826;5.850;2023-11-19T12:44:22;13.70;88.42
67054;SHT31;53960;51.826;5.850;2023-11-19T12:46:59;13.71;88.66
67054;SHT31;53960;51.826;5.850;2023-11-19T12:49:25;13.71;88.58
67054;SHT31;53960;51.826;5.850;2023-11-19T12:51:50;13.63;88.76
67054;SHT31;53960;51.826;5.850;2023-11-19T12:54:16;13.61;88.88
67054;SHT31;53960;51.826;5.850;2023-11-19T12:56:52;13.54;89.05
67054;SHT31;53960;51.826;5.850;2023-11-19T12:59:17;13.59;88.87
67054;SHT31;53960;51.826;5.850;2023-11-19T13:01:59;13.56;88.88
67054;SHT31;53960;51.826;5.850;2023-11-19T13:04:30;13.59;88.52
67054;SHT31;53960;51.826;5.850;2023-11-19T13:06:57;13.61;88.58
67054;SHT31;53960;51.826;5.850;2023-11-19T13:09:23;13.67;88.69
67054;SHT31;53960;51.826;5.850;2023-11-19T13:11:50;13.70;88.52
67054;SHT31;53960;51.826;5.850;2023-11-19T13:14:16;13.66;88.79
67054;SHT31;53960;51.826;5.850;2023-11-19T13:16:42;13.61;88.89
67054;SHT31;53960;51.826;5.850;2023-11-19T13:19:07;13.63;88.90
67054;SHT31;53960;51.826;5.850;2023-11-19T13:21:34;13.70;89.01
67054;SHT31;53960;51.826;5.850;2023-11-19T13:23:59;13.75;88.86
67054;SHT31;53960;51.826;5.850;2023-11-19T13:26:24;13.78;88.63
67054;SHT31;53960;51.826;5.850;2023-11-19T13:28:50;13.71;88.81
67054;SHT31;53960;51.826;5.850;2023-11-19T13:31:15;13.61;89.18
67054;SHT31;53960;51.826;5.850;2023-11-19T13:33:41;13.61;89.52
67054;SHT31;53960;51.826;5.850;2023-11-19T13:36:07;13.59;89.60
67054;SHT31;53960;51.826;5.850;2023-11-19T13:38:34;13.46;90.79
67054;SHT31;53960;51.826;5.850;2023-11-19T13:41:03;13.43;91.39
67054;SHT31;53960;51.826;5.850;2023-11-19T13:43:32;13.30;92.72
67054;SHT31;53960;51.826;5.850;2023-11-19T13:45:57;13.19;94.15
67054;SHT31;53960;51.826;5.850;2023-11-19T13:48:23;13.06;94.98
67054;SHT31;53960;51.826;5.850;2023-11-19T13:50:49;12.96;95.86
67054;SHT31;53960;51.826;5.850;2023-11-19T13:53:14;12.92;95.85
67054;SHT31;53960;51.826;5.850;2023-11-19T13:55:41;12.89;96.17
67054;SHT31;53960;51.826;5.850;2023-11-19T13:58:07;12.95;96.11
67054;SHT31;53960;51.826;5.850;2023-11-19T14:00:32;12.99;96.21
67054;SHT31;53960;51.826;5.850;2023-11-19T14:02:58;13.10;96.35
67054;SHT31;53960;51.826;5.850;2023-11-19T14:05:23;13.06;95.73
67054;SHT31;53960;51.826;5.850;2023-11-19T14:07:49;13.01;95.92
67054;SHT31;53960;51.826;5.850;2023-11-19T14:10:15;12.95;96.18
67054;SHT31;53960;51.826;5.850;2023-11-19T14:12:41;12.98;96.10
67054;SHT31;53960;51.826;5.850;2023-11-19T14:15:08;12.96;96.06
67054;SHT31;53960;51.826;5.850;2023-11-19T14:17:40;12.95;96.12
67054;SHT31;53960;51.826;5.850;2023-11-19T14:20:06;12.93;95.89
67054;SHT31;53960;51.826;5.850;2023-11-19T14:22:41;12.91;95.74
67054;SHT31;53960;51.826;5.850;2023-11-19T14:25:07;12.84;95.98
67054;SHT31;53960;51.826;5.850;2023-11-19T14:27:42;12.85;95.39
67054;SHT31;53960;51.826;5.850;2023-11-19T14:30:12;12.78;95.49
67054;SHT31;53960;51.826;5.850;2023-11-19T14:32:42;12.72;95.52
67054;SHT31;53960;51.826;5.850;2023-11-19T14:35:09;12.64;95.03
67054;SHT31;53960;51.826;5.850;2023-11-19T14:37:34;12.68;94.93
67054;SHT31;53960;51.826;5.850;2023-11-19T14:40:00;12.55;95.37
67054;SHT31;53960;51.826;5.850;2023-11-19T14:42:27;12.60;95.58
67054;SHT31;53960;51.826;5.850;2023-11-19T14:44:52;12.51;96.21
67054;SHT31;53960;51.826;5.850;2023-11-19T14:47:19;12.50;96.40
67054;SHT31;53960;51.826;5.850;2023-11-19T14:49:44;12.45;96.90
67054;SHT31;53960;51.826;5.850;2023-11-19T14:52:09;12.44;96.87
67054;SHT31;53960;51.826;5.850;2023-11-19T14:54:35;12.36;96.93
67054;SHT31;53960;51.826;5.850;2023-11-19T14:57:01;12.40;97.14
67054;SHT31;53960;51.826;5.850;2023-11-19T14:59:26;12.27;96.32
67054;SHT31;53960;51.826;5.850;2023-11-19T15:01:51;12.17;97.05
67054;SHT31;53960;51.826;5.850;2023-11-19T15:04:16;12.13;97.32
67054;SHT31;53960;51.826;5.850;2023-11-19T15:06:43;12.13;97.18
67054;SHT31;53960;51.826;5.850;2023-11-19T15:09:08;12.10;96.72
67054;SHT31;53960;51.826;5.850;2023-11-19T15:11:34;12.07;97.24
67054;SHT31;53960;51.826;5.850;2023-11-19T15:14:00;12.07;96.92
67054;SHT31;53960;51.826;5.850;2023-11-19T15:16:25;12.06;97.27
67054;SHT31;53960;51.826;5.850;2023-11-19T15:18:57;12.06;97.11
67054;SHT31;53960;51.826;5.850;2023-11-19T15:21:25;12.10;96.71
67054;SHT31;53960;51.826;5.850;2023-11-19T15:23:51;12.04;96.78
67054;SHT31;53960;51.826;5.850;2023-11-19T15:26:17;12.03;96.71
67054;SHT31;53960;51.826;5.850;2023-11-19T15:28:43;11.99;97.09
67054;SHT31;53960;51.826;5.850;2023-11-19T15:31:08;11.94;97.23
67054;SHT31;53960;51.826;5.850;2023-11-19T15:33:35;11.93;97.44
67054;SHT31;53960;51.826;5.850;2023-11-19T15:36:00;11.92;97.47
67054;SHT31;53960;51.826;5.850;2023-11-19T15:38:27;12.03;97.23
67054;SHT31;53960;51.826;5.850;2023-11-19T15:40:52;11.99;97.31
67054;SHT31;53960;51.826;5.850;2023-11-19T15:43:18;11.97;97.38
67054;SHT31;53960;51.826;5.850;2023-11-19T15:45:44;12.06;97.27
67054;SHT31;53960;51.826;5.850;2023-11-19T15:48:09;12.04;97.07